DVL 2017 - 1k Results


results@negativesplitrunning.com      
Place First Last Time Age Sex Sex Place Age Group Age Place Pace Bib Status Team
1StephenHernandez0:04:4610M110-137:411017
2TrevorWest0:04:5512M210-137:5550
3MariaGonzalez0:04:5912F110-138:021005
4TristanTan0:06:018M39-under9:421003
5AldenCervantez0:06:056M49-under19:4840
6KatelynnTan0:06:106F29-under9:561004
7PresleyJiron0:06:327M59-under210:321009
8aaronCherbone0:06:355M69-under310:3751
9JasonMcCarty0:07:4745M740-49112:331015
10KathrynHensley0:07:487F39-under12:341013
11JordynPlacencia0:07:516F49-under112:391001
12JosephGuerrero0:07:5212M810-13112:411008
13AsherCervantez0:07:574M99-under412:4941
14DreherCadence0:08:178F59-under213:2144
15BodiePineda0:08:449M109-under514:0553
16AngelicaTopete0:08:595F69-under314:2961Koka
17MikelePineda0:09:5546M1140-49215:5954
18MikelePineda0:09:5649F740-49116:0152
19IreneCorrea0:09:5855F850-59116:0443
20MilaniDiaz0:10:134F99-under416:2859Koka
21JohnDevilla0:10:2273M1270-79116:431014
22JasonTan0:10:4344M1340-49317:171002
23MarianneTan0:10:5937F1030-39117:4262Koka
24OliviaJiron0:11:395F119-under518:471010
25JoseCorrea0:12:4855M1450-59120:3842
26NatalieTopete0:12:573F129-under620:531012
27LauraLopez0:38:5830F1330-3922:501016
NicholasKenton15M14-1657Koka
BreelynMason4F9-under56Koka
MarleneMason34F30-3955Koka
BrandonMason37M30-3958Koka
UNKNOWNRUNNER53F9-under63Koka
UNKNOWNRUNNER344M40-4966Koka
UNKNOWNRUNNER26F9-under65Koka
UNKNOWNRUNNER18M9-under64Koka
CesarCampos11M10-1349
DonnieMrgich48F40-4960Koka
TJPugsley11M10-1347
SamPugsley44M40-4946
CarissaMolina5F9-under48
ChristinaPugsley46F40-4945